sensor_id;sensor_type;location;lat;lon;timestamp;temperature;humidity
4520;DHT22;2272;49.226;8.108;2023-02-04T14:42:40;9.10;99.90
4520;DHT22;2272;49.226;8.108;2023-02-04T14:45:08;9.10;99.90
4520;DHT22;2272;49.226;8.108;2023-02-04T14:47:35;9.00;99.90
4520;DHT22;2272;49.226;8.108;2023-02-04T14:50:05;8.90;99.90
4520;DHT22;2272;49.226;8.108;2023-02-04T14:52:32;8.90;99.90
4520;DHT22;2272;49.226;8.108;2023-02-04T14:54:58;8.70;99.90
4520;DHT22;2272;49.226;8.108;2023-02-04T14:57:25;8.50;99.90
4520;DHT22;2272;49.226;8.108;2023-02-04T14:59:52;8.50;99.90
4520;DHT22;2272;49.226;8.108;2023-02-04T15:02:18;8.50;99.90
4520;DHT22;2272;49.226;8.108;2023-02-04T15:04:45;8.50;99.90
4520;DHT22;2272;49.226;8.108;2023-02-04T15:07:14;8.50;99.90
4520;DHT22;2272;49.226;8.108;2023-02-04T15:09:41;8.50;99.90
4520;DHT22;2272;49.226;8.108;2023-02-04T15:12:09;8.50;99.90
4520;DHT22;2272;49.226;8.108;2023-02-04T15:14:36;8.50;99.90
4520;DHT22;2272;49.226;8.108;2023-02-04T15:17:03;8.40;99.90
4520;DHT22;2272;49.226;8.108;2023-02-04T15:19:29;8.30;99.90
4520;DHT22;2272;49.226;8.108;2023-02-04T15:21:56;8.30;99.90
4520;DHT22;2272;49.226;8.108;2023-02-04T15:24:24;8.20;99.90
4520;DHT22;2272;49.226;8.108;2023-02-04T15:26:53;8.10;99.90
4520;DHT22;2272;49.226;8.108;2023-02-04T15:29:20;8.00;99.90
4520;DHT22;2272;49.226;8.108;2023-02-04T15:31:47;7.90;99.90
4520;DHT22;2272;49.226;8.108;2023-02-04T15:34:13;7.90;99.90
4520;DHT22;2272;49.226;8.108;2023-02-04T15:36:40;7.80;99.90
4520;DHT22;2272;49.226;8.108;2023-02-04T15:39:07;7.70;99.90
4520;DHT22;2272;49.226;8.108;2023-02-04T15:41:35;7.60;99.90
4520;DHT22;2272;49.226;8.108;2023-02-04T15:44:02;7.50;99.90
4520;DHT22;2272;49.226;8.108;2023-02-04T15:46:30;7.40;99.90
4520;DHT22;2272;49.226;8.108;2023-02-04T15:48:56;7.20;99.90
4520;DHT22;2272;49.226;8.108;2023-02-04T15:53:50;7.10;99.90
4520;DHT22;2272;49.226;8.108;2023-02-04T15:56:17;7.00;99.90
4520;DHT22;2272;49.226;8.108;2023-02-04T15:58:45;7.00;99.90
4520;DHT22;2272;49.226;8.108;2023-02-04T16:01:12;6.90;99.90
4520;DHT22;2272;49.226;8.108;2023-02-04T16:03:40;6.70;99.90
4520;DHT22;2272;49.226;8.108;2023-02-04T16:06:09;6.60;99.90
4520;DHT22;2272;49.226;8.108;2023-02-04T16:08:35;6.60;99.90
4520;DHT22;2272;49.226;8.108;2023-02-04T16:11:02;6.40;99.90
4520;DHT22;2272;49.226;8.108;2023-02-04T16:13:29;6.30;99.90
4520;DHT22;2272;49.226;8.108;2023-02-04T16:15:57;6.30;99.90
4520;DHT22;2272;49.226;8.108;2023-02-04T16:18:24;6.10;99.90
4520;DHT22;2272;49.226;8.108;2023-02-04T16:20:50;6.00;99.90
4520;DHT22;2272;49.226;8.108;2023-02-04T16:23:17;5.80;99.90
4520;DHT22;2272;49.226;8.108;2023-02-04T16:25:44;5.70;99.90
4520;DHT22;2272;49.226;8.108;2023-02-04T16:28:10;5.40;99.90
4520;DHT22;2272;49.226;8.108;2023-02-04T16:30:37;5.20;99.90
4520;DHT22;2272;49.226;8.108;2023-02-04T16:33:06;5.10;99.90
4520;DHT22;2272;49.226;8.108;2023-02-04T16:35:58;4.90;99.90
4520;DHT22;2272;49.226;8.108;2023-02-04T16:38:26;4.70;99.90
4520;DHT22;2272;49.226;8.108;2023-02-04T16:40:52;4.60;99.90
4520;DHT22;2272;49.226;8.108;2023-02-04T16:43:19;4.40;99.90
4520;DHT22;2272;49.226;8.108;2023-02-04T16:45:46;4.40;99.90
4520;DHT22;2272;49.226;8.108;2023-02-04T16:48:12;4.30;99.90
4520;DHT22;2272;49.226;8.108;2023-02-04T16:50:39;4.30;99.90
4520;DHT22;2272;49.226;8.108;2023-02-04T16:53:07;4.20;99.90
4520;DHT22;2272;49.226;8.108;2023-02-04T16:55:39;4.10;99.90
4520;DHT22;2272;49.226;8.108;2023-02-04T16:58:06;4.00;99.90
4520;DHT22;2272;49.226;8.108;2023-02-04T17:00:32;3.90;99.90
4520;DHT22;2272;49.226;8.108;2023-02-04T17:03:00;3.90;99.90
4520;DHT22;2272;49.226;8.108;2023-02-04T17:05:27;3.90;99.90
4520;DHT22;2272;49.226;8.108;2023-02-04T17:07:53;3.80;99.90
4520;DHT22;2272;49.226;8.108;2023-02-04T17:10:23;3.80;99.90
4520;DHT22;2272;49.226;8.108;2023-02-04T17:13:04;3.70;99.90
4520;DHT22;2272;49.226;8.108;2023-02-04T17:15:30;3.70;99.90
4520;DHT22;2272;49.226;8.108;2023-02-04T17:17:57;3.60;99.90
4520;DHT22;2272;49.226;8.108;2023-02-04T17:20:24;3.50;99.90
4520;DHT22;2272;49.226;8.108;2023-02-04T17:22:50;3.50;99.90
4520;DHT22;2272;49.226;8.108;2023-02-04T17:25:17;3.50;99.90
4520;DHT22;2272;49.226;8.108;2023-02-04T17:27:45;3.40;99.90
4520;DHT22;2272;49.226;8.108;2023-02-04T17:30:15;3.40;99.90
4520;DHT22;2272;49.226;8.108;2023-02-04T17:32:41;3.40;99.90
4520;DHT22;2272;49.226;8.108;2023-02-04T17:35:08;3.40;99.90
4520;DHT22;2272;49.226;8.108;2023-02-04T17:37:35;3.40;99.90
4520;DHT22;2272;49.226;8.108;2023-02-04T17:40:02;3.40;99.90
4520;DHT22;2272;49.226;8.108;2023-02-04T17:42:30;3.40;99.90
4520;DHT22;2272;49.226;8.108;2023-02-04T17:44:57;3.40;99.90
4520;DHT22;2272;49.226;8.108;2023-02-04T17:47:24;3.40;99.90
4520;DHT22;2272;49.226;8.108;2023-02-04T17:49:51;3.40;99.90
4520;DHT22;2272;49.226;8.108;2023-02-04T17:52:17;3.40;99.90
4520;DHT22;2272;49.226;8.108;2023-02-04T17:54:44;3.40;99.90
4520;DHT22;2272;49.226;8.108;2023-02-04T17:57:16;3.30;99.90
4520;DHT22;2272;49.226;8.108;2023-02-04T17:59:43;3.30;99.90
4520;DHT22;2272;49.226;8.108;2023-02-04T18:02:22;3.30;99.90
4520;DHT22;2272;49.226;8.108;2023-02-04T18:04:49;3.30;99.90
4520;DHT22;2272;49.226;8.108;2023-02-04T18:07:16;3.40;99.90
4520;DHT22;2272;49.226;8.108;2023-02-04T18:09:43;3.30;99.90
4520;DHT22;2272;49.226;8.108;2023-02-04T18:12:13;3.30;99.90
4520;DHT22;2272;49.226;8.108;2023-02-04T18:14:40;3.30;99.90
4520;DHT22;2272;49.226;8.108;2023-02-04T18:17:12;3.20;99.90
4520;DHT22;2272;49.226;8.108;2023-02-04T18:19:40;3.20;99.90
4520;DHT22;2272;49.226;8.108;2023-02-04T18:22:11;3.20;99.90
4520;DHT22;2272;49.226;8.108;2023-02-04T18:24:38;3.20;99.90
4520;DHT22;2272;49.226;8.108;2023-02-04T18:27:14;3.10;99.90
4520;DHT22;2272;49.226;8.108;2023-02-04T18:29:43;3.10;99.90
4520;DHT22;2272;49.226;8.108;2023-02-04T18:32:15;3.00;99.90
4520;DHT22;2272;49.226;8.108;2023-02-04T18:34:46;3.00;99.90
4520;DHT22;2272;49.226;8.108;2023-02-04T18:37:26;2.90;99.90
4520;DHT22;2272;49.226;8.108;2023-02-04T18:39:56;2.90;99.90
4520;DHT22;2272;49.226;8.108;2023-02-04T18:42:25;2.90;99.90
4520;DHT22;2272;49.226;8.108;2023-02-04T18:44:52;2.90;99.90
4520;DHT22;2272;49.226;8.108;2023-02-04T18:47:28;2.80;99.90
4520;DHT22;2272;49.226;8.108;2023-02-04T19:32:47;2.20;99.90
4520;DHT22;2272;49.226;8.108;2023-02-04T19:35:21;2.30;99.90
4520;DHT22;2272;49.226;8.108;2023-02-04T19:58:08;2.70;99.90
4520;DHT22;2272;49.226;8.108;2023-02-04T20:00:39;2.90;99.90
4520;DHT22;2272;49.226;8.108;2023-02-04T20:03:26;3.00;99.90
4520;DHT22;2272;49.226;8.108;2023-02-04T20:06:00;2.90;99.90
4520;DHT22;2272;49.226;8.108;2023-02-04T20:08:41;3.00;99.90
4520;DHT22;2272;49.226;8.108;2023-02-04T20:11:51;3.00;99.90
4520;DHT22;2272;49.226;8.108;2023-02-04T20:14:42;3.00;99.90
4520;DHT22;2272;49.226;8.108;2023-02-04T20:17:21;2.90;99.90
4520;DHT22;2272;49.226;8.108;2023-02-04T20:19:48;3.00;99.90
4520;DHT22;2272;49.226;8.108;2023-02-04T20:22:48;3.00;99.90
4520;DHT22;2272;49.226;8.108;2023-02-04T20:25:39;3.10;99.90
4520;DHT22;2272;49.226;8.108;2023-02-04T20:28:34;3.10;99.90
4520;DHT22;2272;49.226;8.108;2023-02-04T20:33:56;3.20;99.90
4520;DHT22;2272;49.226;8.108;2023-02-04T20:36:41;3.30;99.90
4520;DHT22;2272;49.226;8.108;2023-02-04T20:39:40;3.20;99.90
4520;DHT22;2272;49.226;8.108;2023-02-04T20:42:33;3.20;99.90
4520;DHT22;2272;49.226;8.108;2023-02-04T20:45:26;3.10;99.90
4520;DHT22;2272;49.226;8.108;2023-02-04T20:47:58;3.00;99.90
4520;DHT22;2272;49.226;8.108;2023-02-04T20:50:35;3.00;99.90
4520;DHT22;2272;49.226;8.108;2023-02-04T20:53:19;3.00;99.90
4520;DHT22;2272;49.226;8.108;2023-02-04T20:55:50;2.90;99.90
4520;DHT22;2272;49.226;8.108;2023-02-04T20:58:20;2.90;99.90
4520;DHT22;2272;49.226;8.108;2023-02-04T21:00:49;2.80;99.90
4520;DHT22;2272;49.226;8.108;2023-02-04T21:03:21;2.70;99.90
4520;DHT22;2272;49.226;8.108;2023-02-04T21:05:48;2.70;99.90
4520;DHT22;2272;49.226;8.108;2023-02-04T21:08:43;2.70;99.90
4520;DHT22;2272;49.226;8.108;2023-02-04T21:11:11;2.60;99.90
4520;DHT22;2272;49.226;8.108;2023-02-04T21:13:38;2.50;99.90
4520;DHT22;2272;49.226;8.108;2023-02-04T21:16:05;2.50;99.90
4520;DHT22;2272;49.226;8.108;2023-02-04T21:18:33;2.40;99.90
4520;DHT22;2272;49.226;8.108;2023-02-04T21:21:00;2.30;99.90
4520;DHT22;2272;49.226;8.108;2023-02-04T21:23:27;2.30;99.90
4520;DHT22;2272;49.226;8.108;2023-02-04T21:25:53;2.20;99.90
4520;DHT22;2272;49.226;8.108;2023-02-04T21:28:21;2.10;99.90
4520;DHT22;2272;49.226;8.108;2023-02-04T21:30:48;2.10;99.90
4520;DHT22;2272;49.226;8.108;2023-02-04T21:33:15;2.10;99.90
4520;DHT22;2272;49.226;8.108;2023-02-04T21:35:42;2.10;99.90
4520;DHT22;2272;49.226;8.108;2023-02-04T21:38:08;2.00;99.90
4520;DHT22;2272;49.226;8.108;2023-02-04T21:40:36;2.00;99.90
4520;DHT22;2272;49.226;8.108;2023-02-04T21:43:04;1.90;99.90
4520;DHT22;2272;49.226;8.108;2023-02-04T21:50:29;1.80;99.90
4520;DHT22;2272;49.226;8.108;2023-02-04T21:52:57;1.80;99.90
4520;DHT22;2272;49.226;8.108;2023-02-04T21:55:24;1.70;99.90
4520;DHT22;2272;49.226;8.108;2023-02-04T21:57:51;1.60;99.90
4520;DHT22;2272;49.226;8.108;2023-02-04T22:00:18;1.60;99.90
4520;DHT22;2272;49.226;8.108;2023-02-04T22:02:48;1.50;99.90
4520;DHT22;2272;49.226;8.108;2023-02-04T22:05:15;1.40;99.90
4520;DHT22;2272;49.226;8.108;2023-02-04T22:07:42;1.40;99.90
4520;DHT22;2272;49.226;8.108;2023-02-04T22:10:11;1.40;99.90
4520;DHT22;2272;49.226;8.108;2023-02-04T22:12:38;1.50;99.90
4520;DHT22;2272;49.226;8.108;2023-02-04T22:15:05;1.50;99.90
4520;DHT22;2272;49.226;8.108;2023-02-04T22:17:32;1.40;99.90
4520;DHT22;2272;49.226;8.108;2023-02-04T22:20:00;1.40;99.90
4520;DHT22;2272;49.226;8.108;2023-02-04T22:22:26;1.50;99.90
4520;DHT22;2272;49.226;8.108;2023-02-04T22:24:53;1.40;99.90
4520;DHT22;2272;49.226;8.108;2023-02-04T22:27:20;1.40;99.90
4520;DHT22;2272;49.226;8.108;2023-02-04T22:29:46;1.30;99.90
4520;DHT22;2272;49.226;8.108;2023-02-04T22:32:13;1.30;99.90
4520;DHT22;2272;49.226;8.108;2023-02-04T22:34:40;1.20;99.90
4520;DHT22;2272;49.226;8.108;2023-02-04T22:37:08;1.20;99.90
4520;DHT22;2272;49.226;8.108;2023-02-04T22:39:34;1.20;99.90
4520;DHT22;2272;49.226;8.108;2023-02-04T22:42:01;1.20;99.90
4520;DHT22;2272;49.226;8.108;2023-02-04T22:44:28;1.20;99.90
4520;DHT22;2272;49.226;8.108;2023-02-04T22:46:54;1.30;99.90
4520;DHT22;2272;49.226;8.108;2023-02-04T22:49:21;1.30;99.90
4520;DHT22;2272;49.226;8.108;2023-02-04T22:51:48;1.30;99.90
4520;DHT22;2272;49.226;8.108;2023-02-04T22:54:16;1.30;99.90
4520;DHT22;2272;49.226;8.108;2023-02-04T22:56:42;1.20;99.90
4520;DHT22;2272;49.226;8.108;2023-02-04T22:59:09;1.20;99.90
4520;DHT22;2272;49.226;8.108;2023-02-04T23:01:36;1.20;99.90
4520;DHT22;2272;49.226;8.108;2023-02-04T23:04:02;1.20;99.90
4520;DHT22;2272;49.226;8.108;2023-02-04T23:06:29;1.20;99.90
4520;DHT22;2272;49.226;8.108;2023-02-04T23:08:56;1.20;99.90
4520;DHT22;2272;49.226;8.108;2023-02-04T23:11:24;1.20;99.90
4520;DHT22;2272;49.226;8.108;2023-02-04T23:13:50;1.20;99.90
4520;DHT22;2272;49.226;8.108;2023-02-04T23:16:17;1.20;99.90
4520;DHT22;2272;49.226;8.108;2023-02-04T23:18:44;1.10;99.90
4520;DHT22;2272;49.226;8.108;2023-02-04T23:21:11;1.10;99.90
4520;DHT22;2272;49.226;8.108;2023-02-04T23:23:38;1.00;99.90
4520;DHT22;2272;49.226;8.108;2023-02-04T23:26:04;1.00;99.90
4520;DHT22;2272;49.226;8.108;2023-02-04T23:28:32;1.00;99.90
4520;DHT22;2272;49.226;8.108;2023-02-04T23:30:59;0.90;99.90
4520;DHT22;2272;49.226;8.108;2023-02-04T23:33:26;0.90;99.90
4520;DHT22;2272;49.226;8.108;2023-02-04T23:35:52;1.00;99.90
4520;DHT22;2272;49.226;8.108;2023-02-04T23:38:19;0.90;99.90
4520;DHT22;2272;49.226;8.108;2023-02-04T23:40:46;0.90;99.90
